Time;durP1;ratioP1;P1;durP2;ratioP2;P2;SDS_P1;SDS_P2;PMS_P1;PMS_P2;Temp;Humidity;BMP_temperature;BMP_pressure;BME280_temperature;BME280_humidity;BME280_pressure;Samples;Min_cycle;Max_cycle;Signal;HPM_P1;HPM_P2
2022/12/01 00:01:25;;;;;;;40.37;24.27;;;4.50;99.90;;;;;;4994812;28;20178;-87
2022/12/01 00:03:51;;;;;;;45.73;25.37;;;4.50;99.90;;;;;;4994882;28;20490;-88
2022/12/01 00:06:20;;;;;;;40.93;22.43;;;4.40;99.90;;;;;;4977017;28;20178;-88
2022/12/01 00:11:33;;;;;;;42.30;26.00;;;4.40;99.90;;;;;;4994539;28;20480;-89
2022/12/01 00:13:59;;;;;;;39.43;24.90;;;4.40;99.90;;;;;;4994720;28;20895;-88
2022/12/01 00:16:24;;;;;;;45.40;25.80;;;4.40;99.90;;;;;;4977224;28;20435;-88
2022/12/01 00:18:51;;;;;;;50.47;27.73;;;4.40;99.90;;;;;;4977249;28;20178;-89
2022/12/01 00:21:19;;;;;;;42.80;23.23;;;4.40;99.90;;;;;;4976920;28;20195;-87
2022/12/01 00:23:46;;;;;;;47.90;25.53;;;4.50;99.90;;;;;;4994451;28;20480;-89
2022/12/01 00:26:12;;;;;;;43.67;27.67;;;4.40;99.90;;;;;;4977141;28;20441;-89
2022/12/01 00:28:38;;;;;;;47.20;25.20;;;4.40;99.90;;;;;;4994483;28;20418;-89
2022/12/01 00:31:11;;;;;;;42.57;26.50;;;4.40;99.90;;;;;;4993954;28;20551;-88
2022/12/01 00:33:37;;;;;;;42.60;26.10;;;4.40;99.90;;;;;;4994422;28;20519;-88
2022/12/01 00:36:03;;;;;;;45.30;25.50;;;4.40;99.90;;;;;;4994690;28;20416;-88
2022/12/01 00:38:29;;;;;;;44.23;22.77;;;4.40;99.90;;;;;;4994575;28;20773;-88
2022/12/01 00:40:55;;;;;;;40.70;22.77;;;4.40;99.90;;;;;;4977216;28;20424;-88
2022/12/01 00:43:20;;;;;;;52.67;27.80;;;4.40;99.90;;;;;;4977136;28;20425;-87
2022/12/01 00:45:46;;;;;;;45.77;25.13;;;4.30;99.90;;;;;;4994063;28;20629;-87
2022/12/01 00:48:11;;;;;;;36.70;22.77;;;4.40;99.90;;;;;;4994081;28;20646;-87
2022/12/01 00:50:37;;;;;;;40.90;24.87;;;4.40;99.90;;;;;;4979977;28;20177;-87
2022/12/01 00:53:02;;;;;;;49.50;26.37;;;4.30;99.90;;;;;;4980238;28;20241;-87
2022/12/01 00:55:28;;;;;;;47.70;25.63;;;4.30;99.90;;;;;;4998144;28;20225;-87
2022/12/01 00:57:53;;;;;;;47.87;25.50;;;4.30;99.90;;;;;;4998220;28;20533;-87
2022/12/01 01:00:19;;;;;;;42.07;23.13;;;4.30;99.90;;;;;;4997978;28;20170;-87
2022/12/01 01:02:44;;;;;;;41.77;25.60;;;4.40;99.90;;;;;;4997805;28;20654;-86
2022/12/01 01:05:10;;;;;;;40.83;24.70;;;4.40;99.90;;;;;;4997810;28;20171;-86
2022/12/01 01:07:35;;;;;;;49.97;27.07;;;4.40;99.90;;;;;;4997445;28;20173;-86
2022/12/01 01:10:01;;;;;;;44.27;26.10;;;4.30;99.90;;;;;;4997775;28;20251;-86
2022/12/01 01:12:27;;;;;;;48.67;27.27;;;4.30;99.90;;;;;;4980165;28;20268;-88
2022/12/01 01:14:53;;;;;;;47.07;28.67;;;4.30;99.90;;;;;;4997579;28;20175;-86
2022/12/01 01:17:18;;;;;;;41.83;23.70;;;4.30;99.90;;;;;;4997388;28;21101;-86
2022/12/01 01:19:44;;;;;;;43.23;24.60;;;4.30;99.90;;;;;;4997478;28;20182;-86
2022/12/01 01:22:10;;;;;;;47.53;26.20;;;4.30;99.90;;;;;;4979663;28;20659;-86
2022/12/01 01:24:35;;;;;;;51.30;28.47;;;4.30;99.90;;;;;;4997348;28;20654;-85
2022/12/01 01:27:01;;;;;;;48.33;27.40;;;4.30;99.90;;;;;;4979842;28;20198;-85
2022/12/01 01:29:26;;;;;;;50.43;24.83;;;4.30;99.90;;;;;;4997225;28;20174;-85
2022/12/01 01:31:52;;;;;;;47.83;26.87;;;4.30;99.90;;;;;;4996800;28;20715;-85
2022/12/01 01:34:17;;;;;;;48.57;25.73;;;4.30;99.90;;;;;;4979662;28;20181;-85
2022/12/01 01:36:43;;;;;;;47.10;25.10;;;4.30;99.90;;;;;;4979200;28;20640;-85
2022/12/01 01:39:11;;;;;;;39.53;24.53;;;4.30;99.90;;;;;;4997205;28;20257;-85
2022/12/01 01:41:37;;;;;;;43.80;24.50;;;4.30;99.90;;;;;;4979195;28;20235;-84
2022/12/01 01:44:23;;;;;;;46.97;26.20;;;4.30;99.90;;;;;;4996845;28;20410;-85
2022/12/01 01:46:48;;;;;;;45.63;24.57;;;4.30;99.90;;;;;;4979335;28;20180;-85
2022/12/01 01:49:14;;;;;;;46.13;25.97;;;4.30;99.90;;;;;;4996943;28;20428;-85
2022/12/01 01:51:45;;;;;;;45.83;25.40;;;4.30;99.90;;;;;;4996735;28;20700;-87
2022/12/01 01:54:27;;;;;;;49.97;29.07;;;4.30;99.90;;;;;;4979408;28;20277;-87
2022/12/01 01:56:54;;;;;;;46.50;26.77;;;4.30;99.90;;;;;;4997036;28;20408;-87
2022/12/01 01:59:26;;;;;;;42.73;25.37;;;4.30;99.90;;;;;;4997131;28;20444;-87
2022/12/01 02:02:01;;;;;;;52.40;28.20;;;4.30;99.90;;;;;;4996012;28;20416;-86
2022/12/01 02:04:27;;;;;;;41.27;25.87;;;4.30;99.90;;;;;;4996681;28;20430;-86
2022/12/01 02:06:53;;;;;;;50.00;26.63;;;4.20;99.90;;;;;;4996235;28;20438;-87
2022/12/01 02:09:22;;;;;;;46.77;26.00;;;4.30;99.90;;;;;;4996648;28;20416;-86
2022/12/01 02:12:21;;;;;;;46.67;26.33;;;4.30;99.90;;;;;;4996729;28;20463;-85
2022/12/01 02:15:11;;;;;;;53.80;28.43;;;4.30;99.90;;;;;;4996638;28;20467;-83
2022/12/01 02:17:54;;;;;;;45.60;25.77;;;4.30;99.90;;;;;;5014717;28;20408;-85
2022/12/01 02:20:42;;;;;;;45.20;23.97;;;4.30;99.90;;;;;;5014028;28;20415;-86
2022/12/01 02:23:45;;;;;;;45.23;26.20;;;4.30;99.90;;;;;;5013558;28;20403;-86
2022/12/01 02:26:34;;;;;;;50.60;25.77;;;4.30;99.90;;;;;;5003578;28;20830;-86
2022/12/01 02:29:30;;;;;;;55.13;26.40;;;4.30;99.90;;;;;;4996916;28;20511;-86
2022/12/01 02:32:14;;;;;;;50.13;29.00;;;4.30;99.90;;;;;;4996507;28;20479;-85
2022/12/01 02:35:06;;;;;;;59.47;28.53;;;4.20;99.90;;;;;;4978905;28;20474;-85
2022/12/01 02:37:59;;;;;;;51.27;28.00;;;4.20;99.90;;;;;;4882362;29;20901;-85
2022/12/01 02:40:32;;;;;;;54.40;27.97;;;4.20;99.90;;;;;;4996511;28;20771;-86
2022/12/01 02:43:36;;;;;;;51.83;26.67;;;4.30;99.90;;;;;;4995961;28;20515;-87
2022/12/01 02:46:09;;;;;;;63.50;27.57;;;4.30;99.90;;;;;;4996047;28;20419;-88
2022/12/01 02:48:37;;;;;;;48.63;23.77;;;4.30;99.90;;;;;;4978807;28;20795;-88
2022/12/01 02:51:12;;;;;;;48.97;27.83;;;4.20;99.90;;;;;;4995520;28;20425;-88
2022/12/01 02:53:37;;;;;;;42.97;26.10;;;4.20;99.90;;;;;;4996025;28;20427;-88
2022/12/01 02:56:06;;;;;;;56.23;29.63;;;4.20;99.90;;;;;;4996351;28;20906;-88
2022/12/01 02:58:31;;;;;;;52.77;29.03;;;4.20;99.90;;;;;;4996171;28;20480;-88
2022/12/01 03:01:18;;;;;;;51.50;27.50;;;4.20;99.90;;;;;;4996052;28;20460;-87
2022/12/01 03:04:08;;;;;;;53.53;27.83;;;4.20;99.90;;;;;;4995592;28;20646;-87
2022/12/01 03:06:45;;;;;;;51.87;26.47;;;4.10;99.90;;;;;;4995475;28;20418;-87
2022/12/01 03:09:34;;;;;;;60.63;30.37;;;4.10;99.90;;;;;;4995654;28;20418;-87
2022/12/01 03:12:22;;;;;;;60.17;28.77;;;4.10;99.90;;;;;;4995594;28;20473;-87
2022/12/01 03:15:03;;;;;;;57.80;28.90;;;4.20;99.90;;;;;;4977859;28;20903;-87
2022/12/01 03:17:55;;;;;;;49.80;26.30;;;4.20;99.90;;;;;;4978072;28;20479;-87
2022/12/01 03:20:36;;;;;;;50.17;27.43;;;4.20;99.90;;;;;;4995388;28;20426;-88
2022/12/01 03:23:11;;;;;;;49.97;25.77;;;4.20;99.90;;;;;;4994963;28;20416;-86
2022/12/01 03:25:40;;;;;;;48.17;29.10;;;4.20;99.90;;;;;;4995567;28;20409;-87
2022/12/01 03:28:08;;;;;;;47.00;28.40;;;4.20;99.90;;;;;;4978037;28;20512;-86
2022/12/01 03:30:36;;;;;;;57.90;28.40;;;4.20;99.90;;;;;;4995310;28;20408;-87
2022/12/01 03:33:09;;;;;;;55.73;28.50;;;4.10;99.90;;;;;;4977608;28;20516;-87
2022/12/01 03:35:37;;;;;;;53.80;29.50;;;4.00;99.90;;;;;;4977876;28;20516;-87
2022/12/01 03:38:23;;;;;;;50.93;24.50;;;4.10;99.90;;;;;;4977632;28;20473;-87
2022/12/01 03:40:51;;;;;;;54.37;27.63;;;4.10;99.90;;;;;;4994892;28;20405;-87
2022/12/01 03:43:25;;;;;;;49.23;25.90;;;4.10;99.90;;;;;;4977647;28;21107;-86
2022/12/01 03:46:16;;;;;;;49.47;27.97;;;4.00;99.90;;;;;;4977770;28;20409;-88
2022/12/01 03:48:42;;;;;;;50.47;27.60;;;4.10;99.90;;;;;;4977719;28;20433;-87
2022/12/01 03:51:17;;;;;;;57.50;29.30;;;4.10;99.90;;;;;;4994576;28;20456;-87
2022/12/01 03:53:54;;;;;;;57.93;29.17;;;4.10;99.90;;;;;;4994847;28;20423;-87
2022/12/01 03:56:23;;;;;;;51.53;27.00;;;4.10;99.90;;;;;;4976997;28;20495;-87
2022/12/01 03:58:51;;;;;;;49.17;27.60;;;4.10;99.90;;;;;;4994343;28;20914;-87
2022/12/01 04:01:17;;;;;;;52.47;27.47;;;4.10;99.90;;;;;;4994053;28;20424;-87
2022/12/01 04:03:45;;;;;;;48.90;26.40;;;4.20;99.90;;;;;;4994464;28;20555;-87
2022/12/01 04:06:13;;;;;;;56.10;29.10;;;4.20;99.90;;;;;;4993968;28;20424;-87
2022/12/01 04:08:39;;;;;;;56.80;28.80;;;4.20;99.90;;;;;;4994446;28;20458;-87
2022/12/01 04:12:28;;;;;;;55.33;29.17;;;4.20;99.90;;;;;;4994466;28;20462;-87
2022/12/01 04:13:50;;;;;;;53.60;28.20;;;4.10;99.90;;;;;;4994534;28;20182;-88
2022/12/01 04:16:15;;;;;;;59.17;29.10;;;4.10;99.90;;;;;;4994332;28;20424;-88
2022/12/01 04:18:41;;;;;;;62.30;26.30;;;4.10;99.90;;;;;;4994563;28;20183;-87
2022/12/01 04:21:07;;;;;;;59.47;26.40;;;4.10;99.90;;;;;;4976634;28;20173;-87
2022/12/01 04:26:16;;;;;;;56.93;26.37;;;4.10;99.90;;;;;;4994683;28;20176;-87
2022/12/01 04:28:41;;;;;;;53.70;28.00;;;4.00;99.90;;;;;;4976762;28;20428;-88
2022/12/01 04:31:07;;;;;;;51.50;26.80;;;4.00;99.90;;;;;;4994172;28;20203;-87
2022/12/01 04:33:32;;;;;;;64.17;31.90;;;4.00;99.90;;;;;;4994268;28;20233;-86
2022/12/01 04:35:58;;;;;;;57.87;29.83;;;4.10;99.90;;;;;;4993869;28;20182;-87
2022/12/01 04:38:25;;;;;;;53.00;28.20;;;4.10;99.90;;;;;;4994430;28;20191;-87
2022/12/01 04:40:50;;;;;;;53.00;28.03;;;4.10;99.90;;;;;;4993964;28;20900;-87
2022/12/01 04:43:16;;;;;;;56.83;27.97;;;4.10;99.90;;;;;;4994563;28;20427;-88
2022/12/01 04:45:41;;;;;;;61.10;30.60;;;4.10;99.90;;;;;;4994217;28;20260;-86
2022/12/01 04:48:07;;;;;;;60.57;28.10;;;4.10;99.90;;;;;;4994120;28;20260;-85
2022/12/01 04:50:32;;;;;;;59.30;30.80;;;4.00;99.90;;;;;;4976182;28;20173;-85
2022/12/01 04:52:58;;;;;;;53.23;27.60;;;4.00;99.90;;;;;;4993795;28;20627;-86
2022/12/01 04:55:24;;;;;;;59.37;30.60;;;4.00;99.90;;;;;;4994016;28;20167;-85
2022/12/01 04:57:50;;;;;;;54.60;26.90;;;4.00;99.90;;;;;;4993899;28;20173;-86
2022/12/01 05:00:16;;;;;;;60.93;30.87;;;4.00;99.90;;;;;;4994026;28;20414;-85
2022/12/01 05:02:43;;;;;;;57.90;29.30;;;4.00;99.90;;;;;;4993846;28;20179;-86
2022/12/01 05:05:10;;;;;;;57.33;30.97;;;4.10;99.90;;;;;;4993604;28;20901;-85
2022/12/01 05:07:35;;;;;;;61.83;27.70;;;4.10;99.90;;;;;;4976054;28;20428;-86
2022/12/01 05:10:01;;;;;;;57.70;27.47;;;4.10;99.90;;;;;;4993892;28;20913;-86
2022/12/01 05:12:26;;;;;;;63.10;27.03;;;4.10;99.90;;;;;;4976084;28;20281;-86
2022/12/01 05:14:52;;;;;;;60.50;26.93;;;4.00;99.90;;;;;;4993892;28;20174;-86
2022/12/01 05:17:17;;;;;;;53.90;27.90;;;4.10;99.90;;;;;;4993882;28;20256;-85
2022/12/01 05:22:27;;;;;;;54.70;27.30;;;4.10;99.90;;;;;;4993886;28;20546;-85
2022/12/01 05:24:52;;;;;;;58.33;28.33;;;4.00;99.90;;;;;;4993796;28;20503;-86
2022/12/01 05:27:21;;;;;;;57.37;28.80;;;4.00;99.90;;;;;;4976211;28;20232;-85
2022/12/01 05:29:46;;;;;;;61.13;28.93;;;4.00;99.90;;;;;;4993619;28;20261;-85
2022/12/01 05:32:12;;;;;;;66.73;29.73;;;4.10;99.90;;;;;;4976199;28;20558;-87
2022/12/01 05:34:37;;;;;;;57.33;28.73;;;4.00;99.90;;;;;;4976576;28;20568;-87
2022/12/01 05:37:06;;;;;;;54.73;29.83;;;4.00;99.90;;;;;;4995452;28;20628;-87
2022/12/01 05:39:31;;;;;;;54.20;27.90;;;4.10;99.90;;;;;;4997021;28;20183;-86
2022/12/01 05:41:57;;;;;;;59.97;27.50;;;4.00;99.90;;;;;;4996702;28;20472;-87
2022/12/01 05:44:22;;;;;;;49.97;27.27;;;4.00;99.90;;;;;;4996880;28;20668;-87
2022/12/01 05:46:47;;;;;;;54.20;28.13;;;3.90;99.90;;;;;;4997042;28;20562;-87
2022/12/01 05:49:13;;;;;;;59.57;27.57;;;4.00;99.90;;;;;;4979417;28;20207;-88
2022/12/01 05:51:42;;;;;;;59.03;27.50;;;4.00;99.90;;;;;;4996626;28;20214;-88
2022/12/01 05:54:08;;;;;;;57.80;26.80;;;4.10;99.90;;;;;;4979388;28;20264;-86
2022/12/01 05:56:34;;;;;;;55.27;27.30;;;4.00;99.90;;;;;;4997024;28;21008;-87
2022/12/01 05:58:59;;;;;;;55.73;26.63;;;4.00;99.90;;;;;;5004966;28;20184;-86
2022/12/01 06:01:25;;;;;;;49.97;26.20;;;4.00;99.90;;;;;;5015633;28;20174;-88
2022/12/01 06:03:52;;;;;;;55.23;29.03;;;4.00;99.90;;;;;;4998205;28;20588;-86
2022/12/01 06:06:17;;;;;;;49.47;25.63;;;4.00;99.90;;;;;;5015153;28;20169;-87
2022/12/01 06:08:46;;;;;;;54.10;28.00;;;4.00;99.90;;;;;;5015455;28;20907;-88
2022/12/01 06:11:11;;;;;;;49.87;27.43;;;4.00;99.90;;;;;;5016258;28;20252;-87
2022/12/01 06:13:37;;;;;;;55.53;25.30;;;4.00;99.90;;;;;;4998505;28;20466;-88
2022/12/01 06:16:04;;;;;;;48.63;25.70;;;4.00;99.90;;;;;;5016368;28;20232;-90
2022/12/01 06:18:33;;;;;;;50.40;26.33;;;4.00;99.90;;;;;;5016109;28;20178;-89
2022/12/01 06:20:58;;;;;;;56.00;27.10;;;4.00;99.90;;;;;;5015710;28;20501;-88
2022/12/01 06:23:23;;;;;;;58.67;29.60;;;4.00;99.90;;;;;;5016458;28;20456;-89
2022/12/01 06:25:49;;;;;;;50.87;24.67;;;4.00;99.90;;;;;;5016420;28;20327;-87
2022/12/01 06:28:15;;;;;;;56.57;27.70;;;4.00;99.90;;;;;;5015733;28;20173;-88
2022/12/01 06:30:41;;;;;;;67.10;30.67;;;4.00;99.90;;;;;;5016264;28;20175;-88
2022/12/01 06:33:07;;;;;;;60.43;28.43;;;4.00;99.90;;;;;;5015895;28;20469;-88
2022/12/01 06:35:32;;;;;;;47.40;26.50;;;4.00;99.90;;;;;;5015683;28;20162;-88
2022/12/01 06:37:58;;;;;;;49.10;25.50;;;4.00;99.90;;;;;;5015904;28;20520;-89
2022/12/01 06:40:23;;;;;;;62.60;30.37;;;3.90;99.90;;;;;;5015836;28;20344;-88
2022/12/01 06:42:49;;;;;;;62.40;28.03;;;4.00;99.90;;;;;;4997668;28;20233;-88
2022/12/01 06:45:14;;;;;;;59.43;30.50;;;4.00;99.90;;;;;;5015490;28;20186;-86
2022/12/01 06:47:40;;;;;;;58.73;27.10;;;4.00;99.90;;;;;;5015229;28;20180;-85
2022/12/01 06:50:08;;;;;;;58.00;29.90;;;3.90;99.90;;;;;;5015080;28;20183;-86
2022/12/01 06:52:35;;;;;;;55.43;28.47;;;4.00;99.90;;;;;;5015302;28;20213;-85
2022/12/01 06:55:02;;;;;;;66.73;31.50;;;4.00;99.90;;;;;;5015301;28;20821;-86
2022/12/01 06:57:28;;;;;;;56.30;27.77;;;4.00;99.90;;;;;;5015587;28;20427;-86
2022/12/01 06:59:54;;;;;;;66.27;31.17;;;3.90;99.90;;;;;;5015556;28;20491;-86
2022/12/01 07:02:22;;;;;;;65.67;32.27;;;4.00;99.90;;;;;;5015359;28;20416;-86
2022/12/01 07:04:48;;;;;;;58.80;27.10;;;3.90;99.90;;;;;;4997718;28;20186;-85
2022/12/01 07:07:13;;;;;;;60.33;30.27;;;3.90;99.90;;;;;;5014768;28;20478;-85
2022/12/01 07:09:39;;;;;;;60.27;29.00;;;3.90;99.90;;;;;;5015266;28;20256;-85
2022/12/01 07:12:05;;;;;;;63.63;31.10;;;3.90;99.90;;;;;;5015064;28;20212;-88
2022/12/01 07:14:30;;;;;;;57.03;27.57;;;3.90;99.90;;;;;;5014947;28;20494;-87
2022/12/01 07:16:57;;;;;;;56.30;28.17;;;3.90;99.90;;;;;;4997283;28;20440;-88
2022/12/01 07:19:23;;;;;;;62.77;30.50;;;3.90;99.90;;;;;;5014609;28;20169;-88
2022/12/01 07:21:49;;;;;;;51.37;26.43;;;3.90;99.90;;;;;;4996709;28;20926;-87
2022/12/01 07:24:15;;;;;;;63.90;29.27;;;3.90;99.90;;;;;;5017820;28;20174;-87
2022/12/01 07:26:41;;;;;;;54.97;25.83;;;3.90;99.90;;;;;;5015281;28;20199;-86
2022/12/01 07:29:08;;;;;;;59.43;27.90;;;3.80;99.90;;;;;;4997217;28;20816;-85
2022/12/01 07:31:34;;;;;;;60.37;30.23;;;3.80;99.90;;;;;;4985776;28;20529;-85
2022/12/01 07:33:59;;;;;;;62.97;26.57;;;3.70;99.90;;;;;;4967594;28;20424;-85
2022/12/01 07:36:25;;;;;;;64.57;29.00;;;3.70;99.90;;;;;;4967985;28;20427;-85
2022/12/01 07:38:50;;;;;;;67.67;28.20;;;3.70;99.90;;;;;;4965297;28;20711;-86
2022/12/01 07:41:20;;;;;;;72.37;27.40;;;3.70;99.90;;;;;;4982801;28;20739;-85
2022/12/01 07:43:47;;;;;;;78.77;29.07;;;3.60;99.90;;;;;;4965797;28;20222;-85
2022/12/01 07:46:15;;;;;;;73.53;30.00;;;3.50;99.90;;;;;;4968468;28;20527;-87
2022/12/01 07:48:41;;;;;;;73.23;29.43;;;3.50;99.90;;;;;;4985160;28;20419;-87
2022/12/01 07:51:09;;;;;;;79.37;29.17;;;3.60;99.90;;;;;;4999298;28;20419;-87
2022/12/01 07:53:34;;;;;;;75.83;30.30;;;3.60;99.90;;;;;;5003654;28;20781;-87
2022/12/01 07:56:00;;;;;;;83.07;30.63;;;3.60;99.90;;;;;;4983018;28;20544;-85
2022/12/01 07:58:26;;;;;;;74.17;33.17;;;3.60;99.90;;;;;;4999938;28;20175;-85
2022/12/01 08:00:52;;;;;;;71.17;26.67;;;3.60;99.90;;;;;;4996643;28;20744;-86
2022/12/01 08:03:18;;;;;;;78.33;30.97;;;3.60;99.90;;;;;;4994946;28;20659;-85
2022/12/01 08:05:44;;;;;;;70.73;27.97;;;3.50;99.90;;;;;;5040971;23;21660;-86
2022/12/01 08:08:09;;;;;;;64.83;31.70;;;3.50;99.90;;;;;;4995012;28;20454;-85
2022/12/01 08:10:35;;;;;;;93.93;35.47;;;3.50;99.90;;;;;;4993686;28;20177;-88
2022/12/01 08:13:00;;;;;;;83.93;32.60;;;3.40;99.90;;;;;;4994643;28;20207;-85
2022/12/01 08:15:26;;;;;;;75.33;29.23;;;3.50;99.90;;;;;;4995078;28;20175;-86
2022/12/01 08:17:51;;;;;;;73.43;30.90;;;3.40;99.90;;;;;;4994759;28;20175;-85
2022/12/01 08:20:17;;;;;;;71.00;27.50;;;3.40;99.90;;;;;;4994122;28;20183;-87
2022/12/01 08:22:43;;;;;;;70.63;28.13;;;3.50;99.90;;;;;;4994307;28;20311;-85
2022/12/01 08:25:08;;;;;;;76.00;28.80;;;3.50;99.90;;;;;;4993211;28;20173;-88
2022/12/01 08:27:34;;;;;;;85.27;31.77;;;3.40;99.90;;;;;;4994083;28;20197;-86
2022/12/01 08:30:03;;;;;;;88.93;33.30;;;3.50;99.90;;;;;;4976660;28;20173;-86
2022/12/01 08:32:29;;;;;;;84.90;32.97;;;3.40;99.90;;;;;;4977110;28;20474;-85
2022/12/01 08:34:54;;;;;;;87.53;32.57;;;3.40;99.90;;;;;;4994109;28;20774;-86
2022/12/01 08:37:20;;;;;;;68.17;30.70;;;3.50;99.90;;;;;;4994443;28;20188;-86
2022/12/01 08:39:48;;;;;;;88.57;31.57;;;3.50;99.90;;;;;;4994177;28;20180;-85
2022/12/01 08:42:13;;;;;;;81.80;28.50;;;3.60;99.90;;;;;;4994606;28;20534;-86
2022/12/01 08:44:39;;;;;;;85.57;33.87;;;3.60;99.90;;;;;;4994322;28;20416;-86
2022/12/01 08:47:04;;;;;;;106.40;33.07;;;3.50;99.90;;;;;;4994484;28;20180;-85
2022/12/01 08:49:32;;;;;;;92.40;30.23;;;3.50;99.90;;;;;;4992903;28;20185;-85
2022/12/01 08:51:58;;;;;;;87.77;35.47;;;3.50;99.90;;;;;;4993625;28;20574;-85
2022/12/01 08:54:23;;;;;;;92.57;33.40;;;3.40;99.90;;;;;;4994516;28;20419;-85
2022/12/01 08:56:49;;;;;;;101.23;37.20;;;3.40;99.90;;;;;;4994134;28;20647;-85
2022/12/01 08:59:14;;;;;;;79.57;30.23;;;3.40;99.90;;;;;;4994353;28;20681;-85
2022/12/01 09:02:01;;;;;;;94.10;35.33;;;3.50;99.90;;;;;;4994213;28;20170;-85
2022/12/01 09:04:26;;;;;;;96.97;35.10;;;3.40;99.90;;;;;;4993562;28;20189;-85
2022/12/01 09:06:53;;;;;;;86.03;31.77;;;3.30;99.90;;;;;;4993575;28;20520;-85
2022/12/01 09:09:25;;;;;;;85.13;31.07;;;3.40;99.90;;;;;;4994157;28;20575;-85
2022/12/01 09:11:51;;;;;;;84.47;32.70;;;3.30;99.90;;;;;;4997555;28;20497;-86
2022/12/01 09:14:17;;;;;;;93.77;37.27;;;3.30;99.90;;;;;;4997834;28;20415;-86
2022/12/01 09:16:45;;;;;;;100.37;30.50;;;3.30;99.90;;;;;;4980418;28;20410;-85
2022/12/01 09:19:11;;;;;;;79.93;30.33;;;3.40;99.90;;;;;;4980136;28;20786;-87
2022/12/01 09:21:36;;;;;;;97.27;31.27;;;3.30;99.90;;;;;;4979539;28;20429;-88
2022/12/01 09:24:03;;;;;;;93.07;33.37;;;3.20;99.90;;;;;;4997442;28;20422;-85
2022/12/01 09:26:29;;;;;;;78.73;28.00;;;3.20;99.90;;;;;;4997480;28;20481;-88
2022/12/01 09:28:58;;;;;;;92.00;32.77;;;3.10;99.90;;;;;;4997935;28;20821;-85
2022/12/01 09:31:23;;;;;;;92.40;28.63;;;3.00;99.90;;;;;;4997433;28;20204;-88
2022/12/01 09:34:06;;;;;;;78.37;25.80;;;2.90;99.90;;;;;;4980422;28;20437;-90
2022/12/01 09:36:34;;;;;;;79.07;29.60;;;2.90;99.90;;;;;;4996588;28;20170;-84
2022/12/01 09:39:00;;;;;;;100.50;31.93;;;2.90;99.90;;;;;;4996998;28;20443;-88
2022/12/01 09:41:31;;;;;;;87.57;31.90;;;2.90;99.90;;;;;;4997619;28;20415;-84
2022/12/01 09:44:12;;;;;;;82.00;30.00;;;2.80;99.90;;;;;;4998289;28;20415;-90
2022/12/01 09:46:47;;;;;;;99.00;28.87;;;2.90;99.90;;;;;;4980405;28;20490;-89
2022/12/01 09:49:27;;;;;;;90.90;28.73;;;2.90;99.90;;;;;;5004608;28;20448;-87
2022/12/01 09:51:53;;;;;;;88.20;32.13;;;2.90;99.90;;;;;;5017513;28;20556;-88
2022/12/01 09:54:19;;;;;;;84.30;30.23;;;2.90;99.90;;;;;;5001261;28;20427;-88
2022/12/01 09:56:49;;;;;;;94.80;29.20;;;2.90;99.90;;;;;;5017765;28;20903;-93
2022/12/01 09:59:31;;;;;;;87.97;26.33;;;2.80;99.90;;;;;;5018738;28;20751;-92
2022/12/01 10:02:03;;;;;;;81.00;26.37;;;2.70;99.90;;;;;;5017546;28;20464;-92
2022/12/01 10:04:36;;;;;;;82.50;26.20;;;2.70;99.90;;;;;;5000536;28;21032;-95
2022/12/01 10:07:16;;;;;;;79.13;28.50;;;2.70;99.90;;;;;;5017546;28;20472;-93
2022/12/01 10:10:10;;;;;;;75.13;24.57;;;2.70;99.90;;;;;;5017095;28;20974;-94
2022/12/01 10:12:36;;;;;;;65.67;24.23;;;2.70;99.90;;;;;;5015539;28;20576;-93
2022/12/01 10:15:13;;;;;;;53.00;24.33;;;2.70;99.90;;;;;;5020731;28;20411;-90
2022/12/01 10:17:44;;;;;;;56.90;23.27;;;2.70;99.90;;;;;;5021498;28;20406;-93
2022/12/01 10:20:23;;;;;;;57.50;23.10;;;2.60;99.90;;;;;;5017135;28;20407;-93
2022/12/01 10:23:23;;;;;;;51.23;18.40;;;2.70;99.90;;;;;;5017100;28;20416;-93
2022/12/01 10:26:19;;;;;;;49.13;22.47;;;2.70;99.90;;;;;;5018138;28;20420;-92
2022/12/01 10:29:09;;;;;;;38.97;17.63;;;2.70;99.90;;;;;;5017579;28;20415;-93
2022/12/01 10:31:48;;;;;;;33.03;14.70;;;2.50;99.90;;;;;;5020017;28;20563;-92
2022/12/01 10:34:22;;;;;;;34.57;15.67;;;2.50;99.90;;;;;;5018512;28;20410;-94
2022/12/01 10:36:48;;;;;;;35.33;15.53;;;2.60;99.90;;;;;;5019060;28;20409;-94
2022/12/01 10:39:24;;;;;;;42.10;15.93;;;2.60;99.90;;;;;;5017487;28;20414;-94
2022/12/01 10:41:54;;;;;;;37.70;17.60;;;2.70;99.90;;;;;;5016266;28;20551;-93
2022/12/01 10:44:19;;;;;;;25.40;12.30;;;2.70;99.90;;;;;;5016726;28;20854;-94
2022/12/01 10:46:53;;;;;;;36.57;14.50;;;2.80;99.90;;;;;;5016191;28;20417;-94
2022/12/01 10:49:19;;;;;;;32.90;13.70;;;2.70;99.90;;;;;;5019475;28;20628;-94
2022/12/01 10:51:54;;;;;;;42.73;16.50;;;2.70;99.90;;;;;;5018592;28;20506;-94
2022/12/01 10:54:21;;;;;;;30.17;13.37;;;2.70;99.90;;;;;;5022011;28;20167;-93
2022/12/01 10:56:49;;;;;;;29.90;13.13;;;2.60;99.90;;;;;;5019207;28;20415;-92
2022/12/01 10:59:34;;;;;;;26.90;11.70;;;2.60;99.90;;;;;;5024606;28;20478;-94
2022/12/01 11:02:02;;;;;;;36.60;15.53;;;2.60;99.90;;;;;;5003706;28;20513;-93
2022/12/01 11:04:44;;;;;;;25.53;14.57;;;2.60;99.90;;;;;;5017509;28;20442;-94
2022/12/01 11:07:33;;;;;;;34.20;16.27;;;2.70;99.90;;;;;;5001547;28;21019;-94
2022/12/01 11:10:21;;;;;;;25.00;12.90;;;2.60;99.90;;;;;;5024499;28;20406;-94
2022/12/01 11:13:04;;;;;;;28.03;13.90;;;2.60;99.90;;;;;;5026939;28;20466;-95
2022/12/01 11:15:32;;;;;;;30.33;13.50;;;2.60;99.90;;;;;;5024426;28;20449;-94
2022/12/01 11:18:05;;;;;;;31.30;14.47;;;2.60;99.90;;;;;;5023735;28;20417;-92
2022/12/01 11:20:39;;;;;;;28.23;15.40;;;2.60;99.90;;;;;;5019412;28;20826;-95
2022/12/01 11:23:23;;;;;;;27.33;13.13;;;2.60;99.90;;;;;;5018803;28;20423;-94
2022/12/01 11:26:09;;;;;;;25.93;11.10;;;2.70;99.90;;;;;;5022755;28;20417;-88
2022/12/01 11:28:37;;;;;;;30.00;13.33;;;2.70;99.90;;;;;;5021532;28;20406;-85
2022/12/01 11:31:07;;;;;;;28.37;13.83;;;2.70;99.90;;;;;;5017473;28;20410;-93
2022/12/01 11:33:53;;;;;;;27.70;13.60;;;2.70;99.90;;;;;;5015661;28;20453;-92
2022/12/01 11:36:43;;;;;;;34.77;14.93;;;2.70;99.90;;;;;;4997879;28;20472;-93
2022/12/01 11:39:39;;;;;;;32.20;13.07;;;2.80;99.90;;;;;;5015239;28;20410;-95
2022/12/01 11:42:21;;;;;;;27.07;13.17;;;2.90;99.90;;;;;;4995250;28;20414;-88
2022/12/01 11:45:22;;;;;;;29.97;14.13;;;2.90;99.90;;;;;;5015495;28;20748;-93
2022/12/01 11:48:24;;;;;;;30.10;12.53;;;2.90;99.90;;;;;;5010326;28;20485;-94
2022/12/01 11:51:22;;;;;;;31.47;13.43;;;3.00;99.90;;;;;;4998802;28;20783;-88
2022/12/01 11:53:48;;;;;;;26.23;12.63;;;3.00;99.90;;;;;;5015640;28;20422;-85
2022/12/01 11:56:27;;;;;;;31.27;14.70;;;3.00;99.90;;;;;;5015419;28;20421;-86
2022/12/01 11:59:15;;;;;;;43.60;15.50;;;3.00;99.90;;;;;;5014920;28;20238;-90
2022/12/01 12:01:49;;;;;;;35.80;15.40;;;3.00;99.90;;;;;;5015212;28;20911;-87
2022/12/01 12:04:59;;;;;;;30.00;14.00;;;3.10;99.90;;;;;;5014766;28;20434;-95
2022/12/01 12:07:27;;;;;;;37.47;15.97;;;3.00;99.90;;;;;;5014703;28;20838;-87
2022/12/01 12:10:04;;;;;;;34.57;15.90;;;3.00;99.90;;;;;;5014798;28;20515;-92
2022/12/01 12:12:53;;;;;;;32.20;13.90;;;3.10;99.90;;;;;;4997773;28;20477;-93
2022/12/01 12:15:27;;;;;;;36.83;16.07;;;3.10;99.90;;;;;;4997764;28;20414;-88
2022/12/01 12:18:15;;;;;;;42.33;15.60;;;3.10;99.90;;;;;;5015590;28;20426;-86
2022/12/01 12:20:50;;;;;;;36.53;15.13;;;3.00;99.90;;;;;;4997569;28;20514;-94
2022/12/01 12:23:24;;;;;;;41.20;15.23;;;3.10;99.90;;;;;;5014978;28;20413;-86
2022/12/01 12:25:56;;;;;;;35.97;15.30;;;3.10;99.90;;;;;;5015370;28;20402;-95
2022/12/01 12:28:25;;;;;;;38.13;14.20;;;3.00;99.90;;;;;;4997614;28;20418;-94
2022/12/01 12:31:27;;;;;;;47.87;18.00;;;2.90;99.90;;;;;;5017319;28;20416;-87
2022/12/01 12:34:15;;;;;;;44.90;15.33;;;3.00;99.90;;;;;;5001171;28;20448;-89
2022/12/01 12:37:08;;;;;;;41.70;14.60;;;3.00;99.90;;;;;;5018512;28;20496;-88
2022/12/01 12:40:11;;;;;;;43.10;14.27;;;3.00;99.90;;;;;;5001596;28;20432;-89
2022/12/01 12:43:05;;;;;;;44.70;16.30;;;3.10;99.90;;;;;;5000483;28;20414;-90
2022/12/01 12:45:41;;;;;;;45.93;17.20;;;3.00;99.90;;;;;;5020044;28;20414;-90
2022/12/01 12:48:42;;;;;;;38.40;13.80;;;3.00;99.90;;;;;;5022426;28;20425;-96
2022/12/01 12:51:21;;;;;;;44.10;14.63;;;3.00;99.90;;;;;;5005270;28;20941;-87
2022/12/01 12:54:01;;;;;;;36.30;11.90;;;3.00;99.90;;;;;;5022312;28;20439;-89
2022/12/01 12:56:30;;;;;;;35.67;12.90;;;3.00;99.90;;;;;;5024262;28;20479;-94
2022/12/01 12:59:01;;;;;;;26.33;11.20;;;3.10;99.90;;;;;;5027004;28;20915;-93
2022/12/01 13:01:38;;;;;;;36.50;12.80;;;3.10;99.90;;;;;;5010537;28;20858;-96
2022/12/01 13:04:12;;;;;;;34.67;13.93;;;3.10;99.90;;;;;;5024974;28;20436;-94
2022/12/01 13:06:50;;;;;;;29.57;11.40;;;3.10;99.90;;;;;;4989497;28;20509;-94